sensor_id;sensor_type;location;lat;lon;timestamp;P1;durP1;ratioP1;P2;durP2;ratioP2
77287;SDS011;66345;42.694;23.346;2023-03-01T00:02:16;5.93;;;2.70;;
77287;SDS011;66345;42.694;23.346;2023-03-01T00:04:41;8.07;;;3.13;;
77287;SDS011;66345;42.694;23.346;2023-03-01T00:07:07;7.83;;;3.10;;
77287;SDS011;66345;42.694;23.346;2023-03-01T00:09:32;8.27;;;3.20;;
77287;SDS011;66345;42.694;23.346;2023-03-01T00:11:57;6.27;;;2.40;;
77287;SDS011;66345;42.694;23.346;2023-03-01T00:14:23;6.80;;;2.80;;
77287;SDS011;66345;42.694;23.346;2023-03-01T00:16:48;5.68;;;2.40;;
77287;SDS011;66345;42.694;23.346;2023-03-01T00:19:18;4.40;;;1.87;;
77287;SDS011;66345;42.694;23.346;2023-03-01T00:21:44;6.90;;;2.00;;
77287;SDS011;66345;42.694;23.346;2023-03-01T00:24:10;5.90;;;2.15;;
77287;SDS011;66345;42.694;23.346;2023-03-01T00:26:36;5.35;;;1.77;;
77287;SDS011;66345;42.694;23.346;2023-03-01T00:29:02;5.05;;;1.80;;
77287;SDS011;66345;42.694;23.346;2023-03-01T00:31:29;5.22;;;2.13;;
77287;SDS011;66345;42.694;23.346;2023-03-01T00:33:57;5.27;;;2.10;;
77287;SDS011;66345;42.694;23.346;2023-03-01T00:36:28;4.85;;;1.85;;
77287;SDS011;66345;42.694;23.346;2023-03-01T00:38:55;6.75;;;2.10;;
77287;SDS011;66345;42.694;23.346;2023-03-01T00:41:21;5.20;;;2.05;;
77287;SDS011;66345;42.694;23.346;2023-03-01T00:43:48;5.72;;;2.10;;
77287;SDS011;66345;42.694;23.346;2023-03-01T00:46:15;4.90;;;2.00;;
77287;SDS011;66345;42.694;23.346;2023-03-01T00:48:42;5.15;;;2.05;;
77287;SDS011;66345;42.694;23.346;2023-03-01T00:51:13;5.05;;;1.90;;
77287;SDS011;66345;42.694;23.346;2023-03-01T00:53:43;4.70;;;1.80;;
77287;SDS011;66345;42.694;23.346;2023-03-01T00:56:10;5.47;;;2.10;;
77287;SDS011;66345;42.694;23.346;2023-03-01T00:58:37;4.33;;;1.70;;
77287;SDS011;66345;42.694;23.346;2023-03-01T01:01:10;4.80;;;2.00;;
77287;SDS011;66345;42.694;23.346;2023-03-01T01:03:52;4.47;;;1.90;;
77287;SDS011;66345;42.694;23.346;2023-03-01T01:06:21;4.47;;;1.73;;
77287;SDS011;66345;42.694;23.346;2023-03-01T01:08:51;4.90;;;1.92;;
77287;SDS011;66345;42.694;23.346;2023-03-01T01:11:18;4.27;;;1.87;;
77287;SDS011;66345;42.694;23.346;2023-03-01T01:13:45;4.85;;;1.70;;
77287;SDS011;66345;42.694;23.346;2023-03-01T01:16:11;5.25;;;1.60;;
77287;SDS011;66345;42.694;23.346;2023-03-01T01:18:38;5.85;;;1.80;;
77287;SDS011;66345;42.694;23.346;2023-03-01T01:21:04;4.07;;;1.67;;
77287;SDS011;66345;42.694;23.346;2023-03-01T01:23:31;4.72;;;2.00;;
77287;SDS011;66345;42.694;23.346;2023-03-01T01:25:56;3.87;;;1.57;;
77287;SDS011;66345;42.694;23.346;2023-03-01T01:28:22;4.70;;;1.70;;
77287;SDS011;66345;42.694;23.346;2023-03-01T01:30:47;7.10;;;2.00;;
77287;SDS011;66345;42.694;23.346;2023-03-01T01:33:13;3.67;;;1.60;;
77287;SDS011;66345;42.694;23.346;2023-03-01T01:35:38;4.20;;;1.67;;
77287;SDS011;66345;42.694;23.346;2023-03-01T01:38:04;5.45;;;1.77;;
77287;SDS011;66345;42.694;23.346;2023-03-01T01:40:29;4.50;;;1.93;;
77287;SDS011;66345;42.694;23.346;2023-03-01T01:42:54;3.27;;;1.20;;
77287;SDS011;66345;42.694;23.346;2023-03-01T01:45:36;3.60;;;1.47;;
77287;SDS011;66345;42.694;23.346;2023-03-01T01:48:06;3.70;;;1.48;;
77287;SDS011;66345;42.694;23.346;2023-03-01T01:50:41;3.53;;;1.27;;
77287;SDS011;66345;42.694;23.346;2023-03-01T01:53:11;3.08;;;1.20;;
77287;SDS011;66345;42.694;23.346;2023-03-01T01:55:41;4.00;;;1.47;;
77287;SDS011;66345;42.694;23.346;2023-03-01T01:58:11;3.25;;;1.17;;
77287;SDS011;66345;42.694;23.346;2023-03-01T02:00:40;3.13;;;1.10;;
77287;SDS011;66345;42.694;23.346;2023-03-01T02:03:08;2.70;;;1.00;;
77287;SDS011;66345;42.694;23.346;2023-03-01T02:05:45;4.18;;;1.40;;
77287;SDS011;66345;42.694;23.346;2023-03-01T02:08:12;3.47;;;1.30;;
77287;SDS011;66345;42.694;23.346;2023-03-01T02:10:39;4.55;;;1.30;;
77287;SDS011;66345;42.694;23.346;2023-03-01T02:13:06;3.80;;;1.30;;
77287;SDS011;66345;42.694;23.346;2023-03-01T02:15:34;3.55;;;1.30;;
77287;SDS011;66345;42.694;23.346;2023-03-01T02:18:02;3.65;;;1.27;;
77287;SDS011;66345;42.694;23.346;2023-03-01T02:22:59;3.67;;;1.27;;
77287;SDS011;66345;42.694;23.346;2023-03-01T02:30:43;3.53;;;1.30;;
77287;SDS011;66345;42.694;23.346;2023-03-01T02:33:31;4.57;;;1.35;;
77287;SDS011;66345;42.694;23.346;2023-03-01T02:36:01;4.47;;;1.80;;
77287;SDS011;66345;42.694;23.346;2023-03-01T02:38:31;5.03;;;1.43;;
77287;SDS011;66345;42.694;23.346;2023-03-01T02:40:57;4.18;;;1.70;;
77287;SDS011;66345;42.694;23.346;2023-03-01T02:43:26;4.70;;;1.50;;
77287;SDS011;66345;42.694;23.346;2023-03-01T02:45:57;3.72;;;1.25;;
77287;SDS011;66345;42.694;23.346;2023-03-01T02:48:24;4.03;;;1.63;;
77287;SDS011;66345;42.694;23.346;2023-03-01T02:51:04;4.60;;;1.93;;
77287;SDS011;66345;42.694;23.346;2023-03-01T02:56:32;3.63;;;1.05;;
77287;SDS011;66345;42.694;23.346;2023-03-01T02:58:57;4.47;;;1.50;;
77287;SDS011;66345;42.694;23.346;2023-03-01T03:01:25;4.43;;;1.42;;
77287;SDS011;66345;42.694;23.346;2023-03-01T03:04:08;2.83;;;1.10;;
77287;SDS011;66345;42.694;23.346;2023-03-01T03:06:36;3.60;;;1.37;;
77287;SDS011;66345;42.694;23.346;2023-03-01T03:09:03;3.42;;;1.30;;
77287;SDS011;66345;42.694;23.346;2023-03-01T03:11:30;3.70;;;1.25;;
77287;SDS011;66345;42.694;23.346;2023-03-01T03:13:58;4.40;;;1.30;;
77287;SDS011;66345;42.694;23.346;2023-03-01T03:16:24;4.53;;;1.40;;
77287;SDS011;66345;42.694;23.346;2023-03-01T03:18:49;4.47;;;1.50;;
77287;SDS011;66345;42.694;23.346;2023-03-01T03:21:15;3.88;;;1.70;;
77287;SDS011;66345;42.694;23.346;2023-03-01T03:23:42;4.43;;;1.60;;
77287;SDS011;66345;42.694;23.346;2023-03-01T03:26:07;4.80;;;1.70;;
77287;SDS011;66345;42.694;23.346;2023-03-01T03:28:33;4.72;;;1.83;;
77287;SDS011;66345;42.694;23.346;2023-03-01T03:30:59;4.30;;;1.70;;
77287;SDS011;66345;42.694;23.346;2023-03-01T03:33:31;3.85;;;1.67;;
77287;SDS011;66345;42.694;23.346;2023-03-01T03:35:58;4.68;;;1.55;;
77287;SDS011;66345;42.694;23.346;2023-03-01T03:38:23;4.60;;;1.80;;
77287;SDS011;66345;42.694;23.346;2023-03-01T03:40:59;4.15;;;1.40;;
77287;SDS011;66345;42.694;23.346;2023-03-01T03:43:27;4.35;;;1.70;;
77287;SDS011;66345;42.694;23.346;2023-03-01T03:45:53;4.88;;;1.80;;
77287;SDS011;66345;42.694;23.346;2023-03-01T03:48:19;4.23;;;1.83;;
77287;SDS011;66345;42.694;23.346;2023-03-01T03:50:49;5.20;;;1.92;;
77287;SDS011;66345;42.694;23.346;2023-03-01T03:53:16;4.20;;;1.90;;
77287;SDS011;66345;42.694;23.346;2023-03-01T03:55:42;5.13;;;2.23;;
77287;SDS011;66345;42.694;23.346;2023-03-01T03:58:09;4.90;;;2.17;;
77287;SDS011;66345;42.694;23.346;2023-03-01T04:00:39;6.72;;;2.58;;
77287;SDS011;66345;42.694;23.346;2023-03-01T04:03:07;5.97;;;2.65;;
77287;SDS011;66345;42.694;23.346;2023-03-01T04:05:33;7.85;;;3.20;;
77287;SDS011;66345;42.694;23.346;2023-03-01T04:07:59;6.40;;;2.77;;
77287;SDS011;66345;42.694;23.346;2023-03-01T04:10:31;6.22;;;2.83;;
77287;SDS011;66345;42.694;23.346;2023-03-01T04:13:02;7.13;;;2.40;;
77287;SDS011;66345;42.694;23.346;2023-03-01T04:15:28;4.78;;;1.90;;
77287;SDS011;66345;42.694;23.346;2023-03-01T04:17:54;5.17;;;1.93;;
77287;SDS011;66345;42.694;23.346;2023-03-01T04:20:24;5.22;;;2.17;;
77287;SDS011;66345;42.694;23.346;2023-03-01T04:22:52;5.07;;;2.03;;
77287;SDS011;66345;42.694;23.346;2023-03-01T04:25:23;4.72;;;1.85;;
77287;SDS011;66345;42.694;23.346;2023-03-01T04:27:49;4.65;;;2.17;;
77287;SDS011;66345;42.694;23.346;2023-03-01T04:30:14;4.03;;;1.80;;
77287;SDS011;66345;42.694;23.346;2023-03-01T04:32:40;4.35;;;1.80;;
77287;SDS011;66345;42.694;23.346;2023-03-01T04:35:05;4.33;;;1.50;;
77287;SDS011;66345;42.694;23.346;2023-03-01T04:37:31;4.70;;;1.40;;
77287;SDS011;66345;42.694;23.346;2023-03-01T04:39:57;4.40;;;1.60;;
77287;SDS011;66345;42.694;23.346;2023-03-01T04:42:22;4.27;;;1.50;;
77287;SDS011;66345;42.694;23.346;2023-03-01T04:44:48;3.30;;;1.50;;
77287;SDS011;66345;42.694;23.346;2023-03-01T04:47:16;4.25;;;1.77;;
77287;SDS011;66345;42.694;23.346;2023-03-01T04:49:41;6.30;;;1.60;;
77287;SDS011;66345;42.694;23.346;2023-03-01T04:52:07;5.22;;;1.70;;
77287;SDS011;66345;42.694;23.346;2023-03-01T04:54:33;4.77;;;1.50;;
77287;SDS011;66345;42.694;23.346;2023-03-01T04:57:00;5.35;;;2.20;;
77287;SDS011;66345;42.694;23.346;2023-03-01T04:59:27;6.40;;;2.20;;
77287;SDS011;66345;42.694;23.346;2023-03-01T05:01:54;5.10;;;2.05;;
77287;SDS011;66345;42.694;23.346;2023-03-01T05:04:21;5.22;;;2.78;;
77287;SDS011;66345;42.694;23.346;2023-03-01T05:06:47;6.40;;;2.70;;
77287;SDS011;66345;42.694;23.346;2023-03-01T05:09:13;5.72;;;2.28;;
77287;SDS011;66345;42.694;23.346;2023-03-01T05:11:38;7.07;;;2.40;;
77287;SDS011;66345;42.694;23.346;2023-03-01T05:14:04;5.53;;;2.50;;
77287;SDS011;66345;42.694;23.346;2023-03-01T05:16:31;4.38;;;2.20;;
77287;SDS011;66345;42.694;23.346;2023-03-01T05:18:57;6.10;;;2.65;;
77287;SDS011;66345;42.694;23.346;2023-03-01T05:21:23;6.65;;;3.10;;
77287;SDS011;66345;42.694;23.346;2023-03-01T05:23:49;6.77;;;2.77;;
77287;SDS011;66345;42.694;23.346;2023-03-01T05:26:16;6.07;;;2.75;;
77287;SDS011;66345;42.694;23.346;2023-03-01T05:28:42;6.82;;;3.30;;
77287;SDS011;66345;42.694;23.346;2023-03-01T05:31:09;6.70;;;2.87;;
77287;SDS011;66345;42.694;23.346;2023-03-01T05:33:40;7.45;;;2.90;;
77287;SDS011;66345;42.694;23.346;2023-03-01T05:36:06;7.07;;;2.92;;
77287;SDS011;66345;42.694;23.346;2023-03-01T05:38:35;8.50;;;3.20;;
77287;SDS011;66345;42.694;23.346;2023-03-01T05:41:01;6.72;;;2.90;;
77287;SDS011;66345;42.694;23.346;2023-03-01T05:43:29;7.50;;;3.20;;
77287;SDS011;66345;42.694;23.346;2023-03-01T05:45:58;6.40;;;2.40;;
77287;SDS011;66345;42.694;23.346;2023-03-01T05:48:24;6.77;;;2.60;;
77287;SDS011;66345;42.694;23.346;2023-03-01T05:50:50;8.10;;;2.88;;
77287;SDS011;66345;42.694;23.346;2023-03-01T05:53:17;6.45;;;2.67;;
77287;SDS011;66345;42.694;23.346;2023-03-01T05:55:46;5.15;;;2.13;;
77287;SDS011;66345;42.694;23.346;2023-03-01T05:58:13;6.18;;;2.50;;
77287;SDS011;66345;42.694;23.346;2023-03-01T06:00:40;6.25;;;2.83;;
77287;SDS011;66345;42.694;23.346;2023-03-01T06:03:08;6.15;;;2.42;;
77287;SDS011;66345;42.694;23.346;2023-03-01T06:05:35;7.40;;;3.00;;
77287;SDS011;66345;42.694;23.346;2023-03-01T06:08:01;5.20;;;2.42;;
77287;SDS011;66345;42.694;23.346;2023-03-01T06:10:27;6.03;;;2.47;;
77287;SDS011;66345;42.694;23.346;2023-03-01T06:12:53;6.13;;;2.30;;
77287;SDS011;66345;42.694;23.346;2023-03-01T06:15:19;6.67;;;2.33;;
77287;SDS011;66345;42.694;23.346;2023-03-01T06:17:45;6.32;;;2.70;;
77287;SDS011;66345;42.694;23.346;2023-03-01T06:20:15;6.25;;;2.72;;
77287;SDS011;66345;42.694;23.346;2023-03-01T06:22:43;5.70;;;2.40;;
77287;SDS011;66345;42.694;23.346;2023-03-01T06:25:10;5.50;;;2.42;;
77287;SDS011;66345;42.694;23.346;2023-03-01T06:27:37;5.57;;;2.40;;
77287;SDS011;66345;42.694;23.346;2023-03-01T06:30:03;7.43;;;2.40;;
77287;SDS011;66345;42.694;23.346;2023-03-01T06:32:29;7.53;;;2.42;;
77287;SDS011;66345;42.694;23.346;2023-03-01T06:34:55;5.90;;;2.30;;
77287;SDS011;66345;42.694;23.346;2023-03-01T06:37:21;6.15;;;2.47;;
77287;SDS011;66345;42.694;23.346;2023-03-01T06:39:46;7.70;;;3.03;;
77287;SDS011;66345;42.694;23.346;2023-03-01T06:42:12;8.23;;;2.30;;
77287;SDS011;66345;42.694;23.346;2023-03-01T06:44:37;5.23;;;2.33;;
77287;SDS011;66345;42.694;23.346;2023-03-01T06:47:03;4.60;;;1.83;;
77287;SDS011;66345;42.694;23.346;2023-03-01T06:49:28;4.50;;;2.03;;
77287;SDS011;66345;42.694;23.346;2023-03-01T06:51:55;6.80;;;2.40;;
77287;SDS011;66345;42.694;23.346;2023-03-01T06:54:22;4.90;;;2.00;;
77287;SDS011;66345;42.694;23.346;2023-03-01T06:56:48;5.10;;;1.73;;
77287;SDS011;66345;42.694;23.346;2023-03-01T06:59:16;8.15;;;2.47;;
77287;SDS011;66345;42.694;23.346;2023-03-01T07:01:42;6.88;;;2.45;;
77287;SDS011;66345;42.694;23.346;2023-03-01T07:04:08;6.35;;;2.35;;
77287;SDS011;66345;42.694;23.346;2023-03-01T07:06:34;4.97;;;2.03;;
77287;SDS011;66345;42.694;23.346;2023-03-01T07:09:00;6.93;;;1.97;;
77287;SDS011;66345;42.694;23.346;2023-03-01T07:11:25;7.20;;;2.50;;
77287;SDS011;66345;42.694;23.346;2023-03-01T07:13:51;6.47;;;2.42;;
77287;SDS011;66345;42.694;23.346;2023-03-01T07:16:16;5.72;;;2.38;;
77287;SDS011;66345;42.694;23.346;2023-03-01T07:18:42;6.43;;;2.70;;
77287;SDS011;66345;42.694;23.346;2023-03-01T07:21:08;5.10;;;2.10;;
77287;SDS011;66345;42.694;23.346;2023-03-01T07:23:34;6.00;;;2.05;;
77287;SDS011;66345;42.694;23.346;2023-03-01T07:25:59;9.30;;;2.38;;
77287;SDS011;66345;42.694;23.346;2023-03-01T07:28:25;4.57;;;1.80;;
77287;SDS011;66345;42.694;23.346;2023-03-01T07:30:51;5.72;;;2.17;;
77287;SDS011;66345;42.694;23.346;2023-03-01T07:33:17;5.20;;;2.00;;
77287;SDS011;66345;42.694;23.346;2023-03-01T07:35:42;6.18;;;1.90;;
77287;SDS011;66345;42.694;23.346;2023-03-01T07:38:08;5.13;;;1.98;;
77287;SDS011;66345;42.694;23.346;2023-03-01T07:40:34;6.80;;;2.60;;
77287;SDS011;66345;42.694;23.346;2023-03-01T07:42:59;11.15;;;2.60;;
77287;SDS011;66345;42.694;23.346;2023-03-01T07:45:26;4.63;;;1.92;;
77287;SDS011;66345;42.694;23.346;2023-03-01T07:47:53;4.15;;;1.65;;
77287;SDS011;66345;42.694;23.346;2023-03-01T07:50:19;6.13;;;1.90;;
77287;SDS011;66345;42.694;23.346;2023-03-01T07:52:45;4.45;;;1.90;;
77287;SDS011;66345;42.694;23.346;2023-03-01T07:55:11;6.40;;;2.20;;
77287;SDS011;66345;42.694;23.346;2023-03-01T07:57:37;4.10;;;1.43;;
77287;SDS011;66345;42.694;23.346;2023-03-01T08:00:04;6.18;;;1.90;;
77287;SDS011;66345;42.694;23.346;2023-03-01T08:02:30;7.53;;;1.98;;
77287;SDS011;66345;42.694;23.346;2023-03-01T08:04:56;6.15;;;2.50;;
77287;SDS011;66345;42.694;23.346;2023-03-01T08:07:22;6.40;;;2.17;;
77287;SDS011;66345;42.694;23.346;2023-03-01T08:09:47;5.13;;;1.87;;
77287;SDS011;66345;42.694;23.346;2023-03-01T08:12:12;6.07;;;2.23;;
77287;SDS011;66345;42.694;23.346;2023-03-01T08:14:38;5.60;;;1.90;;
77287;SDS011;66345;42.694;23.346;2023-03-01T08:17:03;5.73;;;1.53;;
77287;SDS011;66345;42.694;23.346;2023-03-01T08:19:29;6.53;;;2.00;;
77287;SDS011;66345;42.694;23.346;2023-03-01T08:21:55;6.25;;;1.80;;
77287;SDS011;66345;42.694;23.346;2023-03-01T08:24:23;8.88;;;1.77;;
77287;SDS011;66345;42.694;23.346;2023-03-01T08:26:49;5.17;;;1.60;;
77287;SDS011;66345;42.694;23.346;2023-03-01T08:29:14;4.47;;;1.63;;
77287;SDS011;66345;42.694;23.346;2023-03-01T08:31:40;6.70;;;2.20;;
77287;SDS011;66345;42.694;23.346;2023-03-01T08:34:09;4.53;;;1.77;;
77287;SDS011;66345;42.694;23.346;2023-03-01T08:36:38;4.77;;;1.73;;
77287;SDS011;66345;42.694;23.346;2023-03-01T08:39:06;5.75;;;1.88;;
77287;SDS011;66345;42.694;23.346;2023-03-01T08:41:32;5.90;;;2.13;;
77287;SDS011;66345;42.694;23.346;2023-03-01T08:43:58;5.68;;;2.35;;
77287;SDS011;66345;42.694;23.346;2023-03-01T08:46:31;5.13;;;2.10;;
77287;SDS011;66345;42.694;23.346;2023-03-01T08:48:58;4.43;;;1.55;;
77287;SDS011;66345;42.694;23.346;2023-03-01T08:51:25;5.30;;;1.80;;
77287;SDS011;66345;42.694;23.346;2023-03-01T08:53:51;3.30;;;1.35;;
77287;SDS011;66345;42.694;23.346;2023-03-01T08:56:18;4.40;;;1.75;;
77287;SDS011;66345;42.694;23.346;2023-03-01T08:58:47;11.43;;;4.30;;
77287;SDS011;66345;42.694;23.346;2023-03-01T09:01:15;4.05;;;1.70;;
77287;SDS011;66345;42.694;23.346;2023-03-01T09:03:42;5.60;;;1.73;;
77287;SDS011;66345;42.694;23.346;2023-03-01T09:06:09;3.58;;;1.10;;
77287;SDS011;66345;42.694;23.346;2023-03-01T09:08:37;4.53;;;1.40;;
77287;SDS011;66345;42.694;23.346;2023-03-01T09:11:08;5.07;;;1.50;;
77287;SDS011;66345;42.694;23.346;2023-03-01T09:13:36;3.47;;;1.45;;
77287;SDS011;66345;42.694;23.346;2023-03-01T09:16:02;4.47;;;1.30;;
77287;SDS011;66345;42.694;23.346;2023-03-01T09:18:29;3.75;;;1.25;;
77287;SDS011;66345;42.694;23.346;2023-03-01T09:21:02;5.47;;;1.60;;
77287;SDS011;66345;42.694;23.346;2023-03-01T09:23:34;3.45;;;1.17;;
77287;SDS011;66345;42.694;23.346;2023-03-01T09:26:04;4.97;;;1.50;;
77287;SDS011;66345;42.694;23.346;2023-03-01T09:28:30;5.50;;;1.75;;
77287;SDS011;66345;42.694;23.346;2023-03-01T09:30:59;3.23;;;1.10;;
77287;SDS011;66345;42.694;23.346;2023-03-01T09:33:26;4.82;;;1.23;;
77287;SDS011;66345;42.694;23.346;2023-03-01T09:35:59;3.95;;;1.00;;
77287;SDS011;66345;42.694;23.346;2023-03-01T09:38:26;3.40;;;1.20;;
77287;SDS011;66345;42.694;23.346;2023-03-01T09:40:53;3.45;;;1.23;;
77287;SDS011;66345;42.694;23.346;2023-03-01T09:43:21;3.85;;;1.48;;
77287;SDS011;66345;42.694;23.346;2023-03-01T09:45:55;3.25;;;1.35;;
77287;SDS011;66345;42.694;23.346;2023-03-01T09:48:26;5.53;;;1.60;;
77287;SDS011;66345;42.694;23.346;2023-03-01T09:50:55;3.55;;;1.20;;
77287;SDS011;66345;42.694;23.346;2023-03-01T09:53:23;3.47;;;1.30;;
77287;SDS011;66345;42.694;23.346;2023-03-01T09:56:02;4.25;;;1.20;;
77287;SDS011;66345;42.694;23.346;2023-03-01T09:58:36;3.67;;;0.90;;
77287;SDS011;66345;42.694;23.346;2023-03-01T10:03:42;2.83;;;0.77;;
77287;SDS011;66345;42.694;23.346;2023-03-01T10:13:55;4.90;;;1.60;;
77287;SDS011;66345;42.694;23.346;2023-03-01T10:16:51;3.72;;;1.02;;
77287;SDS011;66345;42.694;23.346;2023-03-01T10:19:29;4.28;;;1.30;;
77287;SDS011;66345;42.694;23.346;2023-03-01T10:22:00;4.50;;;1.23;;
77287;SDS011;66345;42.694;23.346;2023-03-01T10:24:34;5.95;;;1.30;;
77287;SDS011;66345;42.694;23.346;2023-03-01T10:27:04;5.57;;;1.17;;
77287;SDS011;66345;42.694;23.346;2023-03-01T10:29:39;3.13;;;0.90;;
77287;SDS011;66345;42.694;23.346;2023-03-01T10:32:13;4.50;;;1.30;;
77287;SDS011;66345;42.694;23.346;2023-03-01T10:34:39;3.80;;;1.30;;
77287;SDS011;66345;42.694;23.346;2023-03-01T10:37:13;5.18;;;1.52;;
77287;SDS011;66345;42.694;23.346;2023-03-01T10:42:33;4.18;;;1.50;;
77287;SDS011;66345;42.694;23.346;2023-03-01T10:48:05;2.80;;;0.85;;
77287;SDS011;66345;42.694;23.346;2023-03-01T10:53:26;2.80;;;0.87;;
77287;SDS011;66345;42.694;23.346;2023-03-01T10:58:24;4.45;;;1.13;;
77287;SDS011;66345;42.694;23.346;2023-03-01T11:00:53;4.38;;;1.00;;
77287;SDS011;66345;42.694;23.346;2023-03-01T11:03:32;3.65;;;1.10;;
77287;SDS011;66345;42.694;23.346;2023-03-01T11:06:04;3.70;;;0.80;;
77287;SDS011;66345;42.694;23.346;2023-03-01T11:08:36;4.25;;;0.88;;
77287;SDS011;66345;42.694;23.346;2023-03-01T11:18:59;2.75;;;0.88;;
77287;SDS011;66345;42.694;23.346;2023-03-01T11:24:33;5.72;;;1.13;;
77287;SDS011;66345;42.694;23.346;2023-03-01T11:27:04;2.92;;;0.88;;
77287;SDS011;66345;42.694;23.346;2023-03-01T11:29:41;4.38;;;1.20;;
77287;SDS011;66345;42.694;23.346;2023-03-01T11:32:12;4.07;;;0.98;;
77287;SDS011;66345;42.694;23.346;2023-03-01T11:37:20;4.18;;;1.00;;
77287;SDS011;66345;42.694;23.346;2023-03-01T11:42:18;3.30;;;0.70;;
77287;SDS011;66345;42.694;23.346;2023-03-01T11:44:51;2.90;;;1.00;;
77287;SDS011;66345;42.694;23.346;2023-03-01T11:47:22;2.38;;;0.65;;
77287;SDS011;66345;42.694;23.346;2023-03-01T11:58:23;4.47;;;1.48;;
77287;SDS011;66345;42.694;23.346;2023-03-01T12:07:24;5.22;;;1.70;;
77287;SDS011;66345;42.694;23.346;2023-03-01T12:20:42;5.07;;;1.80;;
77287;SDS011;66345;42.694;23.346;2023-03-01T12:39:55;4.80;;;1.63;;
77287;SDS011;66345;42.694;23.346;2023-03-01T12:45:30;5.33;;;1.77;;
77287;SDS011;66345;42.694;23.346;2023-03-01T12:48:19;5.95;;;1.80;;
77287;SDS011;66345;42.694;23.346;2023-03-01T12:50:59;5.43;;;2.00;;
77287;SDS011;66345;42.694;23.346;2023-03-01T12:53:31;4.53;;;1.55;;
77287;SDS011;66345;42.694;23.346;2023-03-01T12:56:02;5.13;;;1.75;;
77287;SDS011;66345;42.694;23.346;2023-03-01T12:58:33;4.90;;;1.53;;
77287;SDS011;66345;42.694;23.346;2023-03-01T13:09:59;4.78;;;1.42;;
77287;SDS011;66345;42.694;23.346;2023-03-01T13:11:58;5.47;;;1.80;;
77287;SDS011;66345;42.694;23.346;2023-03-01T13:14:34;4.88;;;1.60;;
77287;SDS011;66345;42.694;23.346;2023-03-01T13:17:01;5.60;;;1.83;;
77287;SDS011;66345;42.694;23.346;2023-03-01T13:19:27;4.63;;;2.08;;
77287;SDS011;66345;42.694;23.346;2023-03-01T13:21:57;4.97;;;2.10;;
77287;SDS011;66345;42.694;23.346;2023-03-01T13:24:27;6.13;;;2.10;;
77287;SDS011;66345;42.694;23.346;2023-03-01T13:29:44;5.20;;;1.90;;
77287;SDS011;66345;42.694;23.346;2023-03-01T13:32:33;5.25;;;1.65;;
77287;SDS011;66345;42.694;23.346;2023-03-01T13:37:44;6.40;;;2.00;;
77287;SDS011;66345;42.694;23.346;2023-03-01T13:42:49;7.78;;;1.90;;
77287;SDS011;66345;42.694;23.346;2023-03-01T13:45:36;4.60;;;1.90;;
77287;SDS011;66345;42.694;23.346;2023-03-01T13:48:14;5.60;;;1.92;;
77287;SDS011;66345;42.694;23.346;2023-03-01T13:50:47;5.47;;;1.70;;
77287;SDS011;66345;42.694;23.346;2023-03-01T13:53:18;4.57;;;1.80;;
77287;SDS011;66345;42.694;23.346;2023-03-01T13:55:47;5.63;;;1.83;;
77287;SDS011;66345;42.694;23.346;2023-03-01T13:58:19;4.38;;;1.70;;
77287;SDS011;66345;42.694;23.346;2023-03-01T14:00:54;4.28;;;1.80;;
77287;SDS011;66345;42.694;23.346;2023-03-01T14:03:30;5.40;;;1.93;;
77287;SDS011;66345;42.694;23.346;2023-03-01T14:06:14;5.53;;;2.10;;
77287;SDS011;66345;42.694;23.346;2023-03-01T14:08:46;6.30;;;2.03;;
77287;SDS011;66345;42.694;23.346;2023-03-01T14:14:37;6.32;;;2.20;;
77287;SDS011;66345;42.694;23.346;2023-03-01T14:16:58;5.43;;;2.20;;
77287;SDS011;66345;42.694;23.346;2023-03-01T14:19:43;6.05;;;2.00;;
77287;SDS011;66345;42.694;23.346;2023-03-01T14:22:19;5.97;;;2.00;;
77287;SDS011;66345;42.694;23.346;2023-03-01T14:24:49;6.50;;;1.90;;
77287;SDS011;66345;42.694;23.346;2023-03-01T14:27:16;6.28;;;2.33;;
77287;SDS011;66345;42.694;23.346;2023-03-01T14:29:42;4.87;;;2.27;;
77287;SDS011;66345;42.694;23.346;2023-03-01T14:32:10;7.13;;;2.40;;
77287;SDS011;66345;42.694;23.346;2023-03-01T14:35:21;5.35;;;2.42;;
77287;SDS011;66345;42.694;23.346;2023-03-01T14:37:48;5.65;;;1.92;;
77287;SDS011;66345;42.694;23.346;2023-03-01T14:40:28;4.93;;;1.90;;
77287;SDS011;66345;42.694;23.346;2023-03-01T14:42:56;7.10;;;2.45;;
77287;SDS011;66345;42.694;23.346;2023-03-01T14:45:25;9.55;;;2.20;;
77287;SDS011;66345;42.694;23.346;2023-03-01T14:47:53;6.47;;;2.25;;
77287;SDS011;66345;42.694;23.346;2023-03-01T14:52:49;7.63;;;2.10;;
77287;SDS011;66345;42.694;23.346;2023-03-01T14:55:20;5.25;;;1.75;;
77287;SDS011;66345;42.694;23.346;2023-03-01T14:57:51;9.52;;;2.55;;
77287;SDS011;66345;42.694;23.346;2023-03-01T15:00:27;6.68;;;2.72;;
77287;SDS011;66345;42.694;23.346;2023-03-01T15:02:58;7.43;;;2.60;;
77287;SDS011;66345;42.694;23.346;2023-03-01T15:05:34;6.22;;;2.45;;
77287;SDS011;66345;42.694;23.346;2023-03-01T15:08:02;5.78;;;2.38;;
77287;SDS011;66345;42.694;23.346;2023-03-01T15:10:29;6.30;;;2.10;;
77287;SDS011;66345;42.694;23.346;2023-03-01T15:13:11;5.82;;;1.95;;
77287;SDS011;66345;42.694;23.346;2023-03-01T15:15:38;5.87;;;1.90;;
77287;SDS011;66345;42.694;23.346;2023-03-01T15:18:18;8.38;;;2.00;;
77287;SDS011;66345;42.694;23.346;2023-03-01T15:20:53;7.47;;;2.15;;
77287;SDS011;66345;42.694;23.346;2023-03-01T15:26:04;6.55;;;2.50;;
77287;SDS011;66345;42.694;23.346;2023-03-01T15:28:31;10.90;;;3.40;;
77287;SDS011;66345;42.694;23.346;2023-03-01T15:31:21;8.13;;;2.85;;
77287;SDS011;66345;42.694;23.346;2023-03-01T15:33:49;7.03;;;2.60;;
77287;SDS011;66345;42.694;23.346;2023-03-01T15:36:32;6.63;;;2.13;;
77287;SDS011;66345;42.694;23.346;2023-03-01T15:38:58;6.93;;;2.80;;
77287;SDS011;66345;42.694;23.346;2023-03-01T15:41:29;7.40;;;2.97;;
77287;SDS011;66345;42.694;23.346;2023-03-01T15:44:00;8.10;;;3.13;;
77287;SDS011;66345;42.694;23.346;2023-03-01T15:46:39;9.10;;;3.77;;
77287;SDS011;66345;42.694;23.346;2023-03-01T15:51:57;11.30;;;4.07;;
77287;SDS011;66345;42.694;23.346;2023-03-01T15:54:23;8.73;;;3.00;;
77287;SDS011;66345;42.694;23.346;2023-03-01T15:56:52;7.80;;;2.93;;
77287;SDS011;66345;42.694;23.346;2023-03-01T15:59:17;9.93;;;3.58;;
77287;SDS011;66345;42.694;23.346;2023-03-01T16:01:43;8.17;;;3.30;;
77287;SDS011;66345;42.694;23.346;2023-03-01T16:04:10;9.68;;;3.60;;
77287;SDS011;66345;42.694;23.346;2023-03-01T16:06:45;9.38;;;3.00;;
77287;SDS011;66345;42.694;23.346;2023-03-01T16:09:23;11.48;;;3.38;;
77287;SDS011;66345;42.694;23.346;2023-03-01T16:11:50;9.95;;;3.35;;
77287;SDS011;66345;42.694;23.346;2023-03-01T16:14:17;11.83;;;3.40;;
77287;SDS011;66345;42.694;23.346;2023-03-01T16:16:43;8.48;;;3.30;;
77287;SDS011;66345;42.694;23.346;2023-03-01T16:19:09;7.68;;;2.70;;
77287;SDS011;66345;42.694;23.346;2023-03-01T16:21:35;7.22;;;2.67;;
77287;SDS011;66345;42.694;23.346;2023-03-01T16:24:04;8.23;;;2.90;;
77287;SDS011;66345;42.694;23.346;2023-03-01T16:26:30;8.40;;;2.50;;
77287;SDS011;66345;42.694;23.346;2023-03-01T16:28:55;8.30;;;2.83;;
77287;SDS011;66345;42.694;23.346;2023-03-01T16:31:22;7.25;;;2.67;;
77287;SDS011;66345;42.694;23.346;2023-03-01T16:33:48;5.63;;;2.50;;
77287;SDS011;66345;42.694;23.346;2023-03-01T16:36:18;8.07;;;2.40;;
77287;SDS011;66345;42.694;23.346;2023-03-01T16:38:49;6.50;;;2.35;;
77287;SDS011;66345;42.694;23.346;2023-03-01T16:41:17;7.07;;;2.80;;
77287;SDS011;66345;42.694;23.346;2023-03-01T16:43:44;7.63;;;2.40;;
77287;SDS011;66345;42.694;23.346;2023-03-01T16:46:19;6.97;;;2.95;;